createdAt,value
2019-05-14T00:02:25.004Z,44.10
2019-05-14T00:04:51.334Z,44.30
2019-05-14T00:07:17.562Z,44.40
2019-05-14T00:09:43.573Z,44.50
2019-05-14T00:12:11.369Z,44.40
2019-05-14T00:14:40.373Z,44.60
2019-05-14T00:17:07.567Z,44.80
2019-05-14T00:19:33.587Z,44.70
2019-05-14T00:22:01.912Z,45.20
2019-05-14T00:24:27.562Z,45.40
2019-05-14T00:26:53.564Z,45.40
2019-05-14T00:29:21.868Z,45.50
2019-05-14T00:31:47.939Z,45.60
2019-05-14T00:34:13.957Z,45.40
2019-05-14T00:36:41.642Z,45.50
2019-05-14T00:39:08.002Z,45.30
2019-05-14T00:41:34.012Z,45.60
2019-05-14T00:44:01.919Z,45.60
2019-05-14T00:46:28.052Z,45.20
2019-05-14T00:48:54.076Z,45.50
2019-05-14T00:51:21.491Z,45.50
2019-05-14T00:53:47.734Z,45.70
2019-05-14T00:56:13.778Z,45.90
2019-05-14T00:58:41.497Z,46.00
2019-05-14T01:01:07.678Z,46.10
2019-05-14T01:03:36.395Z,46.20
2019-05-14T01:06:03.243Z,46.30
2019-05-14T01:08:31.780Z,46.40
2019-05-14T01:10:57.371Z,46.60
2019-05-14T01:13:23.499Z,46.60
2019-05-14T01:15:51.891Z,46.60
2019-05-14T01:18:17.451Z,46.40
2019-05-14T01:20:43.827Z,46.20
2019-05-14T01:23:11.493Z,46.60
2019-05-14T01:25:37.672Z,46.50
2019-05-14T01:28:03.787Z,46.90
2019-05-14T01:30:31.723Z,47.00
2019-05-14T01:32:58.071Z,47.20
2019-05-14T01:35:24.663Z,47.30
2019-05-14T01:37:52.252Z,47.40
2019-05-14T01:40:18.425Z,47.40
2019-05-14T01:42:44.977Z,48.30
2019-05-14T01:45:23.909Z,47.90
2019-05-14T01:47:41.245Z,47.80
2019-05-14T01:50:07.384Z,48.00
2019-05-14T01:52:33.411Z,47.80
2019-05-14T01:55:02.077Z,48.50
2019-05-14T01:57:27.743Z,48.40
2019-05-14T01:59:53.823Z,48.60
2019-05-14T02:02:21.843Z,48.60
2019-05-14T02:04:48.063Z,48.40
2019-05-14T02:07:16.059Z,48.90
2019-05-14T02:09:42.207Z,48.80
2019-05-14T02:12:08.345Z,48.70
2019-05-14T02:14:34.353Z,48.90
2019-05-14T02:17:01.952Z,49.00
2019-05-14T02:19:31.149Z,48.80
2019-05-14T02:21:56.967Z,48.40
2019-05-14T02:24:23.003Z,49.30
2019-05-14T02:26:51.268Z,49.10
2019-05-14T02:29:16.959Z,49.20
2019-05-14T02:31:42.995Z,49.30
2019-05-14T02:34:10.367Z,49.40
2019-05-14T02:36:39.724Z,49.30
2019-05-14T02:39:05.356Z,49.60
2019-05-14T02:41:31.665Z,49.30
2019-05-14T02:43:59.308Z,49.40
2019-05-14T02:46:25.645Z,49.40
2019-05-14T02:48:52.124Z,49.30
2019-05-14T02:51:19.899Z,49.50
2019-05-14T02:53:46.074Z,49.40
2019-05-14T02:56:12.580Z,49.60
2019-05-14T02:58:40.192Z,49.40
2019-05-14T03:01:09.269Z,49.50
2019-05-14T03:03:34.856Z,49.20
2019-05-14T03:06:00.978Z,49.30
2019-05-14T03:08:30.083Z,49.70
2019-05-14T03:10:56.123Z,49.00
2019-05-14T03:13:22.149Z,49.10
2019-05-14T03:15:49.770Z,49.50
2019-05-14T03:18:16.111Z,49.50
2019-05-14T03:20:42.129Z,49.70
2019-05-14T03:23:12.669Z,49.40
2019-05-14T03:25:39.732Z,49.40
2019-05-14T03:28:04.385Z,49.50
2019-05-14T03:30:32.480Z,49.40
2019-05-14T03:33:02.973Z,49.50
2019-05-14T03:35:40.167Z,49.80
2019-05-14T03:37:54.773Z,49.80
2019-05-14T03:40:20.812Z,49.90
2019-05-14T03:42:49.088Z,49.70
2019-05-14T03:45:14.742Z,50.00
2019-05-14T03:47:40.778Z,49.70
2019-05-14T03:50:10.003Z,49.30
2019-05-14T03:52:35.234Z,49.60
2019-05-14T03:55:04.848Z,49.40
2019-05-14T03:57:29.507Z,49.60
2019-05-14T03:59:59.452Z,49.40
2019-05-14T04:02:23.509Z,49.20
2019-05-14T04:04:50.593Z,49.10
2019-05-14T04:07:19.555Z,49.30
2019-05-14T04:09:45.335Z,49.10
2019-05-14T04:12:11.744Z,48.60
2019-05-14T04:14:39.859Z,48.40
2019-05-14T04:17:11.127Z,48.30
2019-05-14T04:19:35.227Z,48.50
2019-05-14T04:22:01.253Z,48.20
2019-05-14T04:24:29.877Z,48.20
2019-05-14T04:27:06.223Z,47.80
2019-05-14T04:29:24.821Z,47.90
2019-05-14T04:31:50.929Z,47.70
2019-05-14T04:34:19.521Z,47.20
2019-05-14T04:36:44.880Z,47.40
2019-05-14T04:39:10.935Z,47.20
2019-05-14T04:41:39.395Z,46.90
2019-05-14T04:44:04.863Z,46.90
2019-05-14T04:46:30.991Z,46.50
2019-05-14T04:48:59.218Z,46.40
2019-05-14T04:51:24.944Z,46.30
2019-05-14T04:53:51.060Z,46.20
2019-05-14T04:56:19.545Z,46.00
2019-05-14T04:58:45.090Z,45.60
2019-05-14T05:01:11.397Z,46.10
2019-05-14T05:03:40.003Z,45.80
2019-05-14T05:06:05.682Z,45.60
2019-05-14T05:08:31.719Z,45.60
2019-05-14T05:11:00.026Z,45.10
2019-05-14T05:13:25.670Z,45.30
2019-05-14T05:15:51.748Z,45.20
2019-05-14T05:18:18.673Z,44.90
2019-05-14T05:20:44.911Z,44.50
2019-05-14T05:23:10.947Z,44.80
2019-05-14T05:25:38.441Z,44.40
2019-05-14T05:28:04.768Z,44.10
2019-05-14T05:30:30.801Z,44.00
2019-05-14T05:32:59.529Z,43.30
2019-05-14T05:35:25.096Z,42.90
2019-05-14T05:37:51.596Z,42.90
2019-05-14T05:40:19.715Z,43.10
2019-05-14T05:42:45.567Z,43.20
2019-05-14T05:45:11.699Z,42.90
2019-05-14T05:47:39.117Z,42.60
2019-05-14T05:50:08.730Z,43.00
2019-05-14T05:52:35.117Z,43.50
2019-05-14T05:55:01.239Z,42.90
2019-05-14T05:57:28.303Z,42.40
2019-05-14T05:59:55.644Z,42.20
2019-05-14T06:02:21.729Z,42.80
2019-05-14T06:04:48.658Z,41.40
2019-05-14T06:07:15.031Z,41.20
2019-05-14T06:09:41.055Z,41.30
2019-05-14T06:12:08.630Z,41.20
2019-05-14T06:14:35.036Z,41.20
2019-05-14T06:17:01.062Z,40.80
2019-05-14T06:19:28.981Z,40.50
2019-05-14T06:21:59.436Z,40.60
2019-05-14T06:24:24.638Z,40.20
2019-05-14T06:26:50.725Z,39.90
2019-05-14T06:29:18.680Z,39.80
2019-05-14T06:31:44.860Z,39.10
2019-05-14T06:34:10.879Z,39.40
2019-05-14T06:36:39.363Z,39.20
2019-05-14T06:39:06.319Z,39.20
2019-05-14T06:41:32.337Z,39.30
2019-05-14T06:43:59.244Z,38.80
2019-05-14T06:46:25.420Z,38.80
2019-05-14T06:48:51.431Z,39.00
2019-05-14T06:51:20.042Z,38.90
2019-05-14T06:53:45.411Z,38.70
2019-05-14T06:56:11.427Z,38.40
2019-05-14T06:58:38.905Z,39.10
2019-05-14T07:01:05.560Z,38.00
2019-05-14T07:03:31.636Z,37.50
2019-05-14T07:05:59.598Z,37.60
2019-05-14T07:08:32.166Z,36.00
2019-05-14T07:10:59.264Z,34.30
2019-05-14T07:13:28.632Z,33.90
2019-05-14T07:15:58.386Z,33.90
2019-05-14T07:18:24.487Z,34.00
2019-05-14T07:20:50.963Z,33.90
2019-05-14T07:23:19.230Z,32.60
2019-05-14T07:25:44.883Z,32.90
2019-05-14T07:28:10.951Z,33.00
2019-05-14T07:30:39.395Z,31.60
2019-05-14T07:33:05.143Z,32.00
2019-05-14T07:35:31.595Z,32.50
2019-05-14T07:37:59.126Z,31.90
2019-05-14T07:40:25.323Z,32.10
2019-05-14T07:42:51.723Z,31.80
2019-05-14T07:45:18.476Z,31.10
2019-05-14T07:47:44.769Z,30.90
2019-05-14T07:50:10.871Z,30.20
2019-05-14T07:52:44.944Z,29.90
2019-05-14T07:55:06.424Z,30.20
2019-05-14T07:57:32.475Z,29.80
2019-05-14T07:59:58.967Z,28.30
2019-05-14T08:02:25.189Z,28.80
2019-05-14T08:04:51.222Z,27.70
2019-05-14T08:07:17.968Z,27.80
2019-05-14T08:09:48.069Z,27.80
2019-05-14T08:12:16.369Z,28.00
2019-05-14T08:14:57.293Z,28.00
2019-05-14T08:17:10.091Z,27.80
2019-05-14T08:19:38.360Z,27.90
2019-05-14T08:22:04.348Z,27.50
2019-05-14T08:24:30.393Z,27.60
2019-05-14T08:26:57.914Z,27.20
2019-05-14T08:29:24.170Z,26.50
2019-05-14T08:31:50.174Z,26.10
2019-05-14T08:34:19.010Z,26.30
2019-05-14T08:36:44.411Z,26.40
2019-05-14T08:39:10.420Z,26.10
2019-05-14T08:41:38.378Z,25.80
2019-05-14T08:44:04.492Z,26.00
2019-05-14T08:46:30.511Z,25.10
2019-05-14T08:48:58.607Z,24.80
2019-05-14T08:51:24.466Z,24.60
2019-05-14T08:53:50.760Z,24.70
2019-05-14T08:56:19.108Z,24.80
2019-05-14T08:58:44.838Z,24.10
2019-05-14T09:01:10.852Z,23.30
2019-05-14T09:03:39.304Z,22.90
2019-05-14T09:06:04.895Z,22.40
2019-05-14T09:08:30.908Z,22.20
2019-05-14T09:10:59.023Z,22.00
2019-05-14T09:13:25.491Z,23.00
2019-05-14T09:15:51.502Z,23.00
2019-05-14T09:18:18.475Z,23.60
2019-05-14T09:20:44.687Z,22.10
2019-05-14T09:23:10.699Z,21.50
2019-05-14T09:25:45.384Z,21.40
2019-05-14T09:28:04.972Z,21.00
2019-05-14T09:30:30.983Z,22.00
2019-05-14T09:32:59.175Z,21.80
2019-05-14T09:35:24.921Z,21.40
2019-05-14T09:37:51.456Z,22.00
2019-05-14T09:40:19.812Z,19.70
2019-05-14T09:42:45.788Z,19.00
2019-05-14T09:45:11.838Z,19.80
2019-05-14T09:47:38.744Z,19.80
2019-05-14T09:50:16.466Z,19.70
2019-05-14T09:52:33.647Z,20.20
2019-05-14T09:54:59.673Z,20.50
2019-05-14T09:57:28.034Z,21.10
2019-05-14T09:59:53.599Z,21.00
2019-05-14T10:02:19.637Z,20.40
2019-05-14T10:04:48.728Z,20.60
2019-05-14T10:07:15.670Z,20.70
2019-05-14T10:09:41.847Z,21.10
2019-05-14T10:12:09.150Z,20.00
2019-05-14T10:14:35.238Z,20.30
2019-05-14T10:17:02.297Z,18.80
2019-05-14T10:19:29.698Z,18.70
2019-05-14T10:21:55.923Z,17.60
2019-05-14T10:24:22.215Z,16.20
2019-05-14T10:26:48.949Z,15.80
2019-05-14T10:29:15.377Z,15.50
2019-05-14T10:31:41.487Z,16.80
2019-05-14T10:34:08.388Z,17.30
2019-05-14T10:36:34.651Z,17.30
2019-05-14T10:39:01.908Z,16.10
2019-05-14T10:41:29.147Z,16.40
2019-05-14T10:43:58.586Z,16.70
2019-05-14T10:46:24.623Z,17.30
2019-05-14T10:48:50.645Z,17.20
2019-05-14T10:51:18.094Z,17.50
2019-05-14T10:53:44.413Z,16.50
2019-05-14T10:56:10.424Z,16.60
2019-05-14T10:58:36.435Z,15.70
2019-05-14T11:01:02.808Z,15.40
2019-05-14T11:03:30.220Z,15.80
2019-05-14T11:05:58.612Z,16.20
2019-05-14T11:08:24.493Z,16.30
2019-05-14T11:10:50.522Z,14.80
2019-05-14T11:13:18.830Z,14.50
2019-05-14T11:15:44.803Z,15.00
2019-05-14T11:18:12.181Z,15.20
2019-05-14T11:20:42.035Z,13.50
2019-05-14T11:23:08.789Z,10.60
2019-05-14T11:25:34.132Z,7.80
2019-05-14T11:28:00.143Z,6.90
2019-05-14T11:30:28.599Z,7.30
2019-05-14T11:32:54.391Z,7.40
2019-05-14T11:35:20.406Z,6.90
2019-05-14T11:37:48.051Z,6.10
2019-05-14T11:40:14.635Z,6.20
2019-05-14T11:42:40.944Z,6.20
2019-05-14T11:45:08.923Z,5.80
2019-05-14T11:47:35.188Z,4.70
2019-05-14T11:50:01.315Z,4.10
2019-05-14T11:52:28.693Z,4.10
2019-05-14T11:54:55.067Z,4.50
2019-05-14T11:57:21.176Z,3.90
2019-05-14T11:59:47.207Z,3.10
2019-05-14T12:02:18.631Z,1.80
2019-05-14T12:04:44.053Z,1.10
2019-05-14T12:07:10.085Z,1.20
2019-05-14T12:09:36.096Z,1.60
2019-05-14T12:12:02.162Z,3.10
2019-05-14T12:14:30.884Z,3.20
2019-05-14T12:16:59.725Z,2.10
2019-05-14T12:19:24.865Z,1.40
2019-05-14T12:22:05.867Z,1.00
2019-05-14T12:24:18.947Z,1.00
2019-05-14T12:26:44.979Z,1.00
2019-05-14T12:29:11.129Z,1.00
2019-05-14T12:31:38.615Z,1.00
2019-05-14T12:34:04.902Z,1.50
2019-05-14T12:36:30.947Z,2.30
2019-05-14T12:38:59.172Z,1.80
2019-05-14T12:41:24.942Z,1.20
2019-05-14T12:43:51.074Z,1.00
2019-05-14T12:46:19.833Z,1.00
2019-05-14T12:48:45.023Z,1.00
2019-05-14T12:51:11.145Z,1.00
2019-05-14T12:53:39.355Z,1.70
2019-05-14T12:56:05.091Z,1.20
2019-05-14T12:58:32.073Z,1.00
2019-05-14T13:00:59.469Z,1.00
2019-05-14T13:03:28.356Z,1.00
2019-05-14T13:05:53.711Z,1.00
2019-05-14T13:08:19.761Z,1.00
2019-05-14T13:10:45.793Z,1.00
2019-05-14T13:13:11.816Z,1.20
2019-05-14T13:15:39.361Z,1.00
2019-05-14T13:18:05.587Z,1.00
2019-05-14T13:20:31.668Z,1.00
2019-05-14T13:22:57.700Z,1.00
2019-05-14T13:25:23.731Z,1.00
2019-05-14T13:27:49.887Z,1.00
2019-05-14T13:30:18.344Z,1.00
2019-05-14T13:32:43.820Z,1.00
2019-05-14T13:35:13.518Z,1.00
2019-05-14T13:37:39.854Z,2.70
2019-05-14T13:40:08.981Z,2.40
2019-05-14T13:42:34.144Z,2.10
2019-05-14T13:45:00.198Z,1.30
2019-05-14T13:47:28.631Z,1.00
2019-05-14T13:49:54.631Z,1.00
2019-05-14T13:52:20.649Z,1.00
2019-05-14T13:54:46.695Z,1.00
2019-05-14T13:57:12.824Z,1.00
2019-05-14T13:59:43.873Z,1.00
2019-05-14T14:02:09.833Z,1.00
2019-05-14T14:04:34.923Z,1.00
2019-05-14T14:07:01.048Z,1.00
2019-05-14T14:09:28.433Z,1.00
2019-05-14T14:11:55.469Z,1.00
2019-05-14T14:14:21.823Z,1.00
2019-05-14T14:16:50.347Z,1.00
2019-05-14T14:19:18.746Z,1.00
2019-05-14T14:21:44.771Z,1.00
2019-05-14T14:24:10.787Z,1.00
2019-05-14T14:26:39.398Z,1.00
2019-05-14T14:29:04.820Z,1.00
2019-05-14T14:31:30.831Z,1.10
2019-05-14T14:33:56.873Z,2.00
2019-05-14T14:36:22.876Z,1.90
2019-05-14T14:38:49.716Z,1.70
2019-05-14T14:41:19.424Z,1.50
2019-05-14T14:43:51.931Z,1.90
2019-05-14T14:46:19.956Z,2.60
2019-05-14T14:48:49.006Z,3.20
2019-05-14T14:51:14.110Z,3.00
2019-05-14T14:53:52.406Z,3.40
2019-05-14T14:56:09.502Z,3.80
2019-05-14T14:58:35.987Z,3.80
2019-05-14T15:01:02.076Z,2.90
2019-05-14T15:03:29.544Z,3.10
2019-05-14T15:05:58.717Z,3.10
2019-05-14T15:08:23.792Z,2.70
2019-05-14T15:10:49.827Z,1.90
2019-05-14T15:13:15.847Z,2.30
2019-05-14T15:15:41.863Z,2.90
2019-05-14T15:18:10.066Z,3.10
2019-05-14T15:20:36.314Z,3.80
2019-05-14T15:23:02.347Z,4.40
2019-05-14T15:25:30.675Z,4.70
2019-05-14T15:27:58.414Z,5.50
2019-05-14T15:30:28.766Z,6.20
2019-05-14T15:32:59.728Z,7.10
2019-05-14T15:35:25.627Z,7.20
2019-05-14T15:37:51.648Z,6.60
2019-05-14T15:40:22.053Z,6.90
2019-05-14T15:42:46.155Z,7.10
2019-05-14T15:45:12.197Z,6.90
2019-05-14T15:47:38.942Z,7.30
2019-05-14T15:50:08.927Z,7.90
2019-05-14T15:52:34.175Z,8.30
2019-05-14T15:55:00.573Z,8.90
2019-05-14T15:57:28.877Z,8.60
2019-05-14T15:59:54.531Z,8.70
2019-05-14T16:02:20.728Z,9.00
2019-05-14T16:04:47.253Z,9.20
2019-05-14T16:07:15.186Z,9.30
2019-05-14T16:09:41.237Z,9.60
2019-05-14T16:12:09.453Z,9.20
2019-05-14T16:14:35.496Z,10.00
2019-05-14T16:17:01.514Z,9.50
2019-05-14T16:19:28.522Z,9.60
2019-05-14T16:21:54.832Z,8.60
2019-05-14T16:24:22.598Z,8.60
2019-05-14T16:26:48.836Z,9.60
2019-05-14T16:29:14.877Z,9.20
2019-05-14T16:31:43.663Z,9.20
2019-05-14T16:34:10.271Z,9.40
2019-05-14T16:36:40.948Z,9.00
2019-05-14T16:39:05.706Z,9.20
2019-05-14T16:41:31.847Z,9.30
2019-05-14T16:43:58.714Z,9.70
2019-05-14T16:46:46.899Z,9.70
2019-05-14T16:49:12.931Z,9.60
2019-05-14T16:51:38.947Z,10.50
2019-05-14T16:54:11.578Z,10.50
2019-05-14T16:56:41.041Z,10.60
2019-05-14T16:59:05.964Z,10.40
2019-05-14T17:01:33.692Z,10.10
2019-05-14T17:03:59.930Z,10.50
2019-05-14T17:06:25.999Z,10.90
2019-05-14T17:08:52.178Z,10.60
2019-05-14T17:11:18.430Z,10.70
2019-05-14T17:13:44.581Z,11.40
2019-05-14T17:16:10.629Z,11.10
2019-05-14T17:18:36.638Z,10.80
2019-05-14T17:21:03.187Z,11.30
2019-05-14T17:23:29.555Z,11.10
2019-05-14T17:25:57.829Z,10.70
2019-05-14T17:28:23.533Z,10.10
2019-05-14T17:30:49.576Z,10.70
2019-05-14T17:33:15.600Z,10.20
2019-05-14T17:35:41.615Z,10.70
2019-05-14T17:38:09.254Z,11.20
2019-05-14T17:40:35.404Z,10.50
2019-05-14T17:43:01.409Z,11.10
2019-05-14T17:45:28.403Z,10.80
2019-05-14T17:47:54.671Z,10.80
2019-05-14T17:50:20.710Z,11.20
2019-05-14T17:52:55.432Z,11.50
2019-05-14T17:55:14.670Z,12.20
2019-05-14T17:57:45.743Z,11.70
2019-05-14T18:00:09.487Z,12.20
2019-05-14T18:02:35.810Z,12.10
2019-05-14T18:05:02.334Z,12.80
2019-05-14T18:07:28.668Z,12.90
2019-05-14T18:09:54.812Z,13.00
2019-05-14T18:12:20.883Z,13.30
2019-05-14T18:14:48.896Z,12.90
2019-05-14T18:17:18.660Z,13.40
2019-05-14T18:19:42.863Z,13.40
2019-05-14T18:22:09.391Z,14.10
2019-05-14T18:24:35.421Z,13.90
2019-05-14T18:27:01.446Z,14.20
2019-05-14T18:29:29.536Z,13.70
2019-05-14T18:31:55.595Z,14.20
2019-05-14T18:34:21.631Z,14.80
2019-05-14T18:36:48.907Z,14.50
2019-05-14T18:39:18.331Z,13.80
2019-05-14T18:41:43.163Z,14.00
2019-05-14T18:44:09.809Z,14.20
2019-05-14T18:46:35.909Z,14.30
2019-05-14T18:49:01.962Z,14.40
2019-05-14T18:51:34.148Z,14.70
2019-05-14T18:54:00.188Z,14.50
2019-05-14T18:56:30.901Z,15.20
2019-05-14T18:58:57.165Z,15.40
2019-05-14T19:01:23.259Z,14.80
2019-05-14T19:03:49.596Z,15.00
2019-05-14T19:06:15.883Z,15.20
2019-05-14T19:08:41.972Z,15.40
2019-05-14T19:11:08.303Z,15.40
2019-05-14T19:13:34.495Z,15.60
2019-05-14T19:16:00.520Z,15.80
2019-05-14T19:18:28.623Z,15.90
2019-05-14T19:20:54.608Z,15.80
2019-05-14T19:23:21.559Z,16.00
2019-05-14T19:25:48.389Z,16.10
2019-05-14T19:28:14.687Z,16.80
2019-05-14T19:30:40.732Z,16.40
2019-05-14T19:33:08.558Z,16.40
2019-05-14T19:35:34.959Z,16.70
2019-05-14T19:38:00.991Z,17.00
2019-05-14T19:40:28.215Z,17.50
2019-05-14T19:42:54.880Z,17.20
2019-05-14T19:45:20.899Z,17.20
2019-05-14T19:47:49.120Z,17.50
2019-05-14T19:50:14.835Z,18.00
2019-05-14T19:52:40.848Z,17.90
2019-05-14T19:55:06.879Z,18.20
2019-05-14T19:57:32.912Z,18.30
2019-05-14T19:59:58.927Z,18.40
2019-05-14T20:02:25.117Z,18.20
2019-05-14T20:04:51.236Z,18.80
2019-05-14T20:07:18.116Z,19.10
2019-05-14T20:09:44.364Z,19.20
2019-05-14T20:12:10.412Z,19.40
2019-05-14T20:14:38.295Z,19.70
2019-05-14T20:17:04.469Z,19.90
2019-05-14T20:19:30.491Z,20.00
2019-05-14T20:21:58.657Z,20.10
2019-05-14T20:24:25.049Z,20.10
2019-05-14T20:27:04.938Z,20.10
2019-05-14T20:29:19.632Z,20.40
2019-05-14T20:31:48.185Z,20.50
2019-05-14T20:34:13.834Z,20.70
2019-05-14T20:36:39.843Z,21.00
2019-05-14T20:39:08.481Z,21.10
2019-05-14T20:41:35.536Z,21.60
2019-05-14T20:44:01.578Z,21.40
2019-05-14T20:46:32.792Z,21.40
2019-05-14T20:48:59.271Z,21.40
2019-05-14T20:51:27.649Z,21.40
2019-05-14T20:53:53.371Z,21.70
2019-05-14T20:56:24.638Z,21.80
2019-05-14T20:58:50.652Z,21.70
2019-05-14T21:01:18.413Z,22.20
2019-05-14T21:03:45.408Z,22.20
2019-05-14T21:06:13.720Z,22.60
2019-05-14T21:08:39.725Z,23.10
2019-05-14T21:11:08.251Z,23.10
2019-05-14T21:13:34.261Z,23.60
2019-05-14T21:16:00.276Z,23.80
2019-05-14T21:18:34.843Z,23.90
2019-05-14T21:20:54.199Z,24.20
2019-05-14T21:23:20.229Z,24.50
2019-05-14T21:25:48.340Z,24.50
2019-05-14T21:28:14.543Z,24.40
2019-05-14T21:30:41.252Z,26.00
2019-05-14T21:33:08.429Z,25.50
2019-05-14T21:35:34.688Z,25.60
2019-05-14T21:38:01.087Z,25.70
2019-05-14T21:40:29.138Z,25.70
2019-05-14T21:42:55.449Z,25.90
2019-05-14T21:45:21.455Z,26.10
2019-05-14T21:47:48.229Z,26.10
2019-05-14T21:50:14.449Z,26.00
2019-05-14T21:52:42.389Z,26.30
2019-05-14T21:55:08.379Z,26.50
2019-05-14T21:57:34.419Z,26.50
2019-05-14T22:00:00.429Z,26.60
2019-05-14T22:02:30.333Z,26.90
2019-05-14T22:04:55.391Z,27.30
2019-05-14T22:07:21.758Z,27.50
2019-05-14T22:09:48.798Z,27.50
2019-05-14T22:12:14.996Z,27.90
2019-05-14T22:14:41.082Z,27.90
2019-05-14T22:17:08.010Z,28.00
2019-05-14T22:19:34.224Z,28.20
2019-05-14T22:22:00.215Z,28.40
2019-05-14T22:24:28.532Z,28.50
2019-05-14T22:26:54.801Z,28.60
2019-05-14T22:29:20.821Z,28.80
2019-05-14T22:31:46.901Z,28.70
2019-05-14T22:34:12.923Z,29.00
2019-05-14T22:36:38.983Z,29.10
2019-05-14T22:39:05.180Z,29.60
2019-05-14T22:41:31.511Z,29.80
2019-05-14T22:43:59.853Z,29.80
2019-05-14T22:46:25.490Z,30.00
2019-05-14T22:48:51.643Z,29.90
2019-05-14T22:51:18.375Z,30.00
2019-05-14T22:53:45.395Z,30.10
2019-05-14T22:56:11.419Z,30.10
2019-05-14T22:58:38.318Z,30.20
2019-05-14T23:01:14.340Z,30.20
2019-05-14T23:03:32.801Z,30.40
2019-05-14T23:05:58.811Z,30.30
2019-05-14T23:08:24.872Z,30.80
2019-05-14T23:10:51.289Z,30.50
2019-05-14T23:13:18.603Z,30.50
2019-05-14T23:15:44.863Z,30.80
2019-05-14T23:18:10.883Z,30.40
2019-05-14T23:20:39.091Z,30.80
2019-05-14T23:23:06.220Z,32.00
2019-05-14T23:25:32.233Z,31.40
2019-05-14T23:27:59.025Z,31.80
2019-05-14T23:30:30.231Z,31.70
2019-05-14T23:32:56.267Z,31.40
2019-05-14T23:35:22.573Z,31.60
2019-05-14T23:37:49.177Z,32.00
2019-05-14T23:40:15.416Z,32.40
2019-05-14T23:42:41.423Z,31.90
2019-05-14T23:45:08.388Z,31.70
2019-05-14T23:47:34.452Z,31.20
2019-05-14T23:50:00.467Z,31.80
2019-05-14T23:52:29.256Z,32.00
2019-05-14T23:54:55.193Z,32.10
2019-05-14T23:57:21.198Z,31.90
2019-05-14T23:59:48.314Z,32.70
